sensor_id;sensor_type;location;lat;lon;timestamp;pressure;altitude;pressure_sealevel;temperature;humidity
55424;BME280;41294;42.666;23.350;2023-07-13T00:01:16;95164.69;;;22.94;77.07
55424;BME280;41294;42.666;23.350;2023-07-13T00:03:42;95165.78;;;22.85;77.22
55424;BME280;41294;42.666;23.350;2023-07-13T00:06:08;95160.47;;;22.80;77.79
55424;BME280;41294;42.666;23.350;2023-07-13T00:08:34;95162.94;;;22.78;77.97
55424;BME280;41294;42.666;23.350;2023-07-13T00:11:01;95154.69;;;22.76;78.00
55424;BME280;41294;42.666;23.350;2023-07-13T00:13:27;95156.56;;;22.81;77.85
55424;BME280;41294;42.666;23.350;2023-07-13T00:15:52;95165.53;;;22.83;78.08
55424;BME280;41294;42.666;23.350;2023-07-13T00:18:19;95162.38;;;22.85;78.12
55424;BME280;41294;42.666;23.350;2023-07-13T00:20:45;95155.09;;;22.80;78.51
55424;BME280;41294;42.666;23.350;2023-07-13T00:23:11;95152.16;;;22.65;78.81
55424;BME280;41294;42.666;23.350;2023-07-13T00:25:36;95151.22;;;22.62;79.38
55424;BME280;41294;42.666;23.350;2023-07-13T00:28:02;95150.50;;;22.62;79.09
55424;BME280;41294;42.666;23.350;2023-07-13T00:30:27;95153.13;;;22.49;79.61
55424;BME280;41294;42.666;23.350;2023-07-13T00:32:53;95141.88;;;22.50;79.61
55424;BME280;41294;42.666;23.350;2023-07-13T00:35:18;95146.00;;;22.51;79.76
55424;BME280;41294;42.666;23.350;2023-07-13T00:37:44;95145.56;;;22.47;79.91
55424;BME280;41294;42.666;23.350;2023-07-13T00:40:12;95139.50;;;22.47;79.95
55424;BME280;41294;42.666;23.350;2023-07-13T00:42:38;95134.53;;;22.51;79.71
55424;BME280;41294;42.666;23.350;2023-07-13T00:47:39;95144.41;;;22.43;79.92
55424;BME280;41294;42.666;23.350;2023-07-13T00:50:08;95151.75;;;22.42;80.34
55424;BME280;41294;42.666;23.350;2023-07-13T00:52:38;95151.22;;;22.44;80.05
55424;BME280;41294;42.666;23.350;2023-07-13T00:55:06;95148.31;;;22.24;80.88
55424;BME280;41294;42.666;23.350;2023-07-13T00:57:32;95143.94;;;22.21;81.69
55424;BME280;41294;42.666;23.350;2023-07-13T01:00:00;95139.22;;;22.08;81.89
55424;BME280;41294;42.666;23.350;2023-07-13T01:02:33;95140.28;;;22.05;82.25
55424;BME280;41294;42.666;23.350;2023-07-13T01:04:59;95146.72;;;22.15;82.13
55424;BME280;41294;42.666;23.350;2023-07-13T01:07:25;95139.91;;;22.14;82.13
55424;BME280;41294;42.666;23.350;2023-07-13T01:09:50;95137.00;;;22.12;82.27
55424;BME280;41294;42.666;23.350;2023-07-13T01:12:16;95132.72;;;22.22;81.45
55424;BME280;41294;42.666;23.350;2023-07-13T01:14:41;95135.09;;;22.07;82.00
55424;BME280;41294;42.666;23.350;2023-07-13T01:17:10;95137.13;;;22.01;82.63
55424;BME280;41294;42.666;23.350;2023-07-13T01:19:44;95130.25;;;21.87;83.57
55424;BME280;41294;42.666;23.350;2023-07-13T01:22:14;95139.06;;;21.82;84.13
55424;BME280;41294;42.666;23.350;2023-07-13T01:24:43;95126.41;;;21.83;83.96
55424;BME280;41294;42.666;23.350;2023-07-13T01:27:10;95130.09;;;21.80;84.26
55424;BME280;41294;42.666;23.350;2023-07-13T01:29:38;95135.03;;;21.94;83.27
55424;BME280;41294;42.666;23.350;2023-07-13T01:32:09;95135.25;;;21.96;83.60
55424;BME280;41294;42.666;23.350;2023-07-13T01:34:35;95138.22;;;21.93;83.80
55424;BME280;41294;42.666;23.350;2023-07-13T01:37:03;95140.91;;;21.93;84.17
55424;BME280;41294;42.666;23.350;2023-07-13T01:39:28;95139.16;;;21.95;83.70
55424;BME280;41294;42.666;23.350;2023-07-13T01:41:53;95139.59;;;21.99;83.86
55424;BME280;41294;42.666;23.350;2023-07-13T01:44:19;95143.38;;;21.91;84.50
55424;BME280;41294;42.666;23.350;2023-07-13T01:46:44;95137.59;;;21.63;86.25
55424;BME280;41294;42.666;23.350;2023-07-13T01:49:10;95131.78;;;21.59;86.54
55424;BME280;41294;42.666;23.350;2023-07-13T01:51:35;95129.25;;;21.66;86.29
55424;BME280;41294;42.666;23.350;2023-07-13T01:54:01;95138.13;;;21.80;86.02
55424;BME280;41294;42.666;23.350;2023-07-13T01:56:26;95126.34;;;21.88;85.60
55424;BME280;41294;42.666;23.350;2023-07-13T01:58:52;95128.56;;;21.84;85.91
55424;BME280;41294;42.666;23.350;2023-07-13T02:01:17;95124.94;;;21.82;86.26
55424;BME280;41294;42.666;23.350;2023-07-13T02:03:43;95135.66;;;21.82;86.23
55424;BME280;41294;42.666;23.350;2023-07-13T02:06:08;95136.78;;;21.92;85.62
55424;BME280;41294;42.666;23.350;2023-07-13T02:08:34;95141.03;;;21.82;85.89
55424;BME280;41294;42.666;23.350;2023-07-13T02:11:00;95140.03;;;21.85;86.07
55424;BME280;41294;42.666;23.350;2023-07-13T02:13:25;95145.66;;;21.81;86.49
55424;BME280;41294;42.666;23.350;2023-07-13T02:15:51;95138.09;;;21.61;87.05
55424;BME280;41294;42.666;23.350;2023-07-13T02:18:16;95138.47;;;21.71;86.52
55424;BME280;41294;42.666;23.350;2023-07-13T02:20:42;95138.94;;;21.75;86.36
55424;BME280;41294;42.666;23.350;2023-07-13T02:23:08;95153.03;;;21.75;86.49
55424;BME280;41294;42.666;23.350;2023-07-13T02:25:33;95139.69;;;21.70;86.86
55424;BME280;41294;42.666;23.350;2023-07-13T02:27:59;95153.03;;;21.75;86.47
55424;BME280;41294;42.666;23.350;2023-07-13T02:30:24;95153.31;;;21.72;86.83
55424;BME280;41294;42.666;23.350;2023-07-13T02:32:50;95157.50;;;21.67;87.37
55424;BME280;41294;42.666;23.350;2023-07-13T02:35:15;95154.78;;;21.73;87.33
55424;BME280;41294;42.666;23.350;2023-07-13T02:37:41;95155.28;;;21.71;87.38
55424;BME280;41294;42.666;23.350;2023-07-13T02:40:07;95145.22;;;21.53;88.33
55424;BME280;41294;42.666;23.350;2023-07-13T02:42:34;95150.75;;;21.61;87.92
55424;BME280;41294;42.666;23.350;2023-07-13T02:44:59;95144.22;;;21.56;88.41
55424;BME280;41294;42.666;23.350;2023-07-13T02:47:25;95150.34;;;21.52;88.79
55424;BME280;41294;42.666;23.350;2023-07-13T02:49:52;95148.50;;;21.41;89.10
55424;BME280;41294;42.666;23.350;2023-07-13T02:52:17;95148.13;;;21.55;88.57
55424;BME280;41294;42.666;23.350;2023-07-13T02:54:42;95152.53;;;21.53;88.52
55424;BME280;41294;42.666;23.350;2023-07-13T02:57:08;95148.34;;;21.57;88.52
55424;BME280;41294;42.666;23.350;2023-07-13T02:59:33;95151.03;;;21.57;88.65
55424;BME280;41294;42.666;23.350;2023-07-13T03:02:01;95146.44;;;21.52;89.13
55424;BME280;41294;42.666;23.350;2023-07-13T03:04:26;95151.25;;;21.36;89.95
55424;BME280;41294;42.666;23.350;2023-07-13T03:06:51;95158.25;;;21.39;90.06
55424;BME280;41294;42.666;23.350;2023-07-13T03:09:17;95155.09;;;21.40;89.66
55424;BME280;41294;42.666;23.350;2023-07-13T03:11:42;95156.94;;;21.51;89.46
55424;BME280;41294;42.666;23.350;2023-07-13T03:14:08;95164.50;;;21.47;89.53
55424;BME280;41294;42.666;23.350;2023-07-13T03:16:33;95163.41;;;21.37;90.30
55424;BME280;41294;42.666;23.350;2023-07-13T03:18:59;95156.91;;;21.56;89.45
55424;BME280;41294;42.666;23.350;2023-07-13T03:21:24;95164.94;;;21.56;88.60
55424;BME280;41294;42.666;23.350;2023-07-13T03:23:50;95163.09;;;21.69;88.62
55424;BME280;41294;42.666;23.350;2023-07-13T03:26:18;95155.69;;;21.57;89.09
55424;BME280;41294;42.666;23.350;2023-07-13T03:28:44;95164.75;;;21.72;88.57
55424;BME280;41294;42.666;23.350;2023-07-13T03:31:13;95164.00;;;21.77;88.04
55424;BME280;41294;42.666;23.350;2023-07-13T03:33:39;95169.78;;;21.81;87.98
55424;BME280;41294;42.666;23.350;2023-07-13T03:36:06;95179.72;;;21.86;87.40
55424;BME280;41294;42.666;23.350;2023-07-13T03:38:32;95174.09;;;21.90;86.90
55424;BME280;41294;42.666;23.350;2023-07-13T03:40:58;95182.41;;;21.86;86.91
55424;BME280;41294;42.666;23.350;2023-07-13T03:43:24;95189.88;;;21.93;86.63
55424;BME280;41294;42.666;23.350;2023-07-13T03:45:50;95169.31;;;22.01;86.44
55424;BME280;41294;42.666;23.350;2023-07-13T03:48:15;95172.38;;;22.11;85.94
55424;BME280;41294;42.666;23.350;2023-07-13T03:50:40;95169.84;;;22.18;84.93
55424;BME280;41294;42.666;23.350;2023-07-13T03:53:06;95162.31;;;22.35;84.35
55424;BME280;41294;42.666;23.350;2023-07-13T03:55:31;95178.91;;;23.07;80.80
55424;BME280;41294;42.666;23.350;2023-07-13T03:58:00;95177.69;;;23.78;77.37
55424;BME280;41294;42.666;23.350;2023-07-13T04:00:25;95175.81;;;24.12;75.68
55424;BME280;41294;42.666;23.350;2023-07-13T04:02:51;95173.91;;;24.46;74.37
55424;BME280;41294;42.666;23.350;2023-07-13T04:05:17;95175.25;;;24.86;72.97
55424;BME280;41294;42.666;23.350;2023-07-13T04:07:43;95171.94;;;24.80;73.19
55424;BME280;41294;42.666;23.350;2023-07-13T04:10:09;95168.75;;;25.22;71.21
55424;BME280;41294;42.666;23.350;2023-07-13T04:12:34;95166.97;;;25.45;70.39
55424;BME280;41294;42.666;23.350;2023-07-13T04:15:00;95163.19;;;25.96;68.91
55424;BME280;41294;42.666;23.350;2023-07-13T04:17:25;95173.41;;;26.25;68.12
55424;BME280;41294;42.666;23.350;2023-07-13T04:19:51;95177.22;;;26.80;65.97
55424;BME280;41294;42.666;23.350;2023-07-13T04:22:16;95181.19;;;26.86;65.66
55424;BME280;41294;42.666;23.350;2023-07-13T04:24:42;95179.47;;;27.11;65.02
55424;BME280;41294;42.666;23.350;2023-07-13T04:27:07;95181.28;;;27.31;63.82
55424;BME280;41294;42.666;23.350;2023-07-13T04:29:33;95191.75;;;27.42;63.48
55424;BME280;41294;42.666;23.350;2023-07-13T04:31:58;95189.94;;;27.82;62.41
55424;BME280;41294;42.666;23.350;2023-07-13T04:34:24;95181.66;;;27.43;62.02
55424;BME280;41294;42.666;23.350;2023-07-13T04:36:50;95191.38;;;27.83;60.52
55424;BME280;41294;42.666;23.350;2023-07-13T04:39:15;95182.97;;;28.33;60.64
55424;BME280;41294;42.666;23.350;2023-07-13T04:41:41;95192.03;;;28.21;57.58
55424;BME280;41294;42.666;23.350;2023-07-13T04:44:07;95192.28;;;27.93;59.12
55424;BME280;41294;42.666;23.350;2023-07-13T04:46:32;95188.59;;;28.28;59.09
55424;BME280;41294;42.666;23.350;2023-07-13T04:48:57;95192.81;;;28.92;58.11
55424;BME280;41294;42.666;23.350;2023-07-13T04:51:24;95191.56;;;29.25;57.01
55424;BME280;41294;42.666;23.350;2023-07-13T04:53:49;95194.19;;;29.32;56.21
55424;BME280;41294;42.666;23.350;2023-07-13T04:56:15;95204.03;;;29.52;55.27
55424;BME280;41294;42.666;23.350;2023-07-13T04:58:40;95208.50;;;28.62;56.03
55424;BME280;41294;42.666;23.350;2023-07-13T05:01:06;95208.66;;;29.11;55.99
55424;BME280;41294;42.666;23.350;2023-07-13T05:03:32;95203.59;;;29.63;54.70
55424;BME280;41294;42.666;23.350;2023-07-13T05:06:06;95207.38;;;29.85;53.39
55424;BME280;41294;42.666;23.350;2023-07-13T05:08:32;95211.88;;;30.07;52.76
55424;BME280;41294;42.666;23.350;2023-07-13T05:11:00;95204.06;;;30.27;52.12
55424;BME280;41294;42.666;23.350;2023-07-13T05:13:26;95204.06;;;30.27;52.50
55424;BME280;41294;42.666;23.350;2023-07-13T05:16:04;95213.50;;;30.26;51.78
55424;BME280;41294;42.666;23.350;2023-07-13T05:18:31;95213.66;;;29.95;53.13
55424;BME280;41294;42.666;23.350;2023-07-13T05:21:08;95222.16;;;30.49;51.95
55424;BME280;41294;42.666;23.350;2023-07-13T05:23:36;95217.91;;;30.56;51.98
55424;BME280;41294;42.666;23.350;2023-07-13T05:26:03;95216.19;;;30.77;51.09
55424;BME280;41294;42.666;23.350;2023-07-13T05:28:31;95213.91;;;30.23;51.19
55424;BME280;41294;42.666;23.350;2023-07-13T05:30:57;95216.38;;;30.28;51.20
55424;BME280;41294;42.666;23.350;2023-07-13T05:33:23;95218.34;;;30.28;50.75
55424;BME280;41294;42.666;23.350;2023-07-13T05:35:49;95219.00;;;30.19;51.58
55424;BME280;41294;42.666;23.350;2023-07-13T05:38:15;95221.81;;;30.45;50.53
55424;BME280;41294;42.666;23.350;2023-07-13T05:40:45;95217.69;;;30.88;50.28
55424;BME280;41294;42.666;23.350;2023-07-13T05:43:11;95225.00;;;30.68;50.39
55424;BME280;41294;42.666;23.350;2023-07-13T05:45:37;95223.97;;;31.07;50.48
55424;BME280;41294;42.666;23.350;2023-07-13T05:48:02;95222.69;;;31.08;50.01
55424;BME280;41294;42.666;23.350;2023-07-13T05:50:28;95219.31;;;30.06;52.24
55424;BME280;41294;42.666;23.350;2023-07-13T05:52:53;95222.53;;;30.63;50.83
55424;BME280;41294;42.666;23.350;2023-07-13T05:55:20;95215.66;;;31.05;51.06
55424;BME280;41294;42.666;23.350;2023-07-13T05:57:45;95222.00;;;31.79;49.02
55424;BME280;41294;42.666;23.350;2023-07-13T06:00:11;95223.97;;;32.14;48.40
55424;BME280;41294;42.666;23.350;2023-07-13T06:02:37;95216.50;;;32.24;47.01
55424;BME280;41294;42.666;23.350;2023-07-13T06:05:02;95215.22;;;32.44;46.71
55424;BME280;41294;42.666;23.350;2023-07-13T06:07:28;95200.47;;;31.38;47.40
55424;BME280;41294;42.666;23.350;2023-07-13T06:09:53;95206.84;;;30.97;49.04
55424;BME280;41294;42.666;23.350;2023-07-13T06:12:18;95195.09;;;30.17;50.94
55424;BME280;41294;42.666;23.350;2023-07-13T06:14:44;95211.88;;;30.74;49.24
55424;BME280;41294;42.666;23.350;2023-07-13T06:17:09;95209.25;;;29.75;50.37
55424;BME280;41294;42.666;23.350;2023-07-13T06:19:35;95214.78;;;28.79;53.04
55424;BME280;41294;42.666;23.350;2023-07-13T06:22:00;95215.09;;;29.96;50.62
55424;BME280;41294;42.666;23.350;2023-07-13T06:24:25;95209.16;;;30.23;50.34
55424;BME280;41294;42.666;23.350;2023-07-13T06:26:51;95214.84;;;30.01;49.64
55424;BME280;41294;42.666;23.350;2023-07-13T06:29:16;95215.81;;;31.07;47.82
55424;BME280;41294;42.666;23.350;2023-07-13T06:31:43;95210.16;;;31.22;45.78
55424;BME280;41294;42.666;23.350;2023-07-13T06:34:08;95222.81;;;30.84;45.99
55424;BME280;41294;42.666;23.350;2023-07-13T06:36:33;95208.22;;;29.70;48.05
55424;BME280;41294;42.666;23.350;2023-07-13T06:38:59;95214.25;;;30.87;46.44
55424;BME280;41294;42.666;23.350;2023-07-13T06:41:24;95212.56;;;31.89;44.11
55424;BME280;41294;42.666;23.350;2023-07-13T06:43:51;95208.16;;;32.79;43.10
55424;BME280;41294;42.666;23.350;2023-07-13T06:46:17;95204.75;;;32.31;44.28
55424;BME280;41294;42.666;23.350;2023-07-13T06:48:43;95211.59;;;30.96;45.86
55424;BME280;41294;42.666;23.350;2023-07-13T06:51:08;95200.94;;;30.31;47.83
55424;BME280;41294;42.666;23.350;2023-07-13T06:53:34;95198.78;;;29.22;51.04
55424;BME280;41294;42.666;23.350;2023-07-13T06:55:59;95202.41;;;29.74;50.17
55424;BME280;41294;42.666;23.350;2023-07-13T06:58:24;95202.47;;;30.08;49.03
55424;BME280;41294;42.666;23.350;2023-07-13T07:00:51;95202.81;;;31.15;46.99
55424;BME280;41294;42.666;23.350;2023-07-13T07:03:17;95194.22;;;31.45;46.43
55424;BME280;41294;42.666;23.350;2023-07-13T07:05:43;95210.47;;;32.73;44.06
55424;BME280;41294;42.666;23.350;2023-07-13T07:08:08;95210.69;;;33.15;42.68
55424;BME280;41294;42.666;23.350;2023-07-13T07:10:34;95202.50;;;33.85;41.89
55424;BME280;41294;42.666;23.350;2023-07-13T07:13:01;95209.59;;;32.80;42.39
55424;BME280;41294;42.666;23.350;2023-07-13T07:15:26;95204.69;;;31.48;45.32
55424;BME280;41294;42.666;23.350;2023-07-13T07:17:52;95194.31;;;30.24;48.28
55424;BME280;41294;42.666;23.350;2023-07-13T07:20:18;95206.84;;;31.50;45.81
55424;BME280;41294;42.666;23.350;2023-07-13T07:22:43;95200.16;;;32.34;43.74
55424;BME280;41294;42.666;23.350;2023-07-13T07:25:09;95205.31;;;32.77;42.68
55424;BME280;41294;42.666;23.350;2023-07-13T07:27:34;95201.56;;;32.06;42.71
55424;BME280;41294;42.666;23.350;2023-07-13T07:30:00;95190.31;;;32.97;41.35
55424;BME280;41294;42.666;23.350;2023-07-13T07:32:25;95204.59;;;33.96;39.14
55424;BME280;41294;42.666;23.350;2023-07-13T07:34:50;95197.25;;;34.61;38.00
55424;BME280;41294;42.666;23.350;2023-07-13T07:37:16;95186.09;;;33.54;41.10
55424;BME280;41294;42.666;23.350;2023-07-13T07:39:43;95183.22;;;32.07;43.86
55424;BME280;41294;42.666;23.350;2023-07-13T07:42:08;95182.31;;;32.04;45.17
55424;BME280;41294;42.666;23.350;2023-07-13T07:44:34;95176.88;;;31.14;46.09
55424;BME280;41294;42.666;23.350;2023-07-13T07:47:00;95180.38;;;30.71;47.53
55424;BME280;41294;42.666;23.350;2023-07-13T07:49:26;95174.34;;;31.61;45.37
55424;BME280;41294;42.666;23.350;2023-07-13T07:51:51;95178.06;;;32.11;44.26
55424;BME280;41294;42.666;23.350;2023-07-13T07:54:17;95177.19;;;32.65;42.80
55424;BME280;41294;42.666;23.350;2023-07-13T07:56:43;95185.28;;;33.12;42.39
55424;BME280;41294;42.666;23.350;2023-07-13T07:59:08;95178.25;;;31.68;44.55
55424;BME280;41294;42.666;23.350;2023-07-13T08:01:34;95168.56;;;32.31;44.56
55424;BME280;41294;42.666;23.350;2023-07-13T08:03:59;95160.69;;;31.52;46.48
55424;BME280;41294;42.666;23.350;2023-07-13T08:06:25;95153.78;;;32.34;44.43
55424;BME280;41294;42.666;23.350;2023-07-13T08:08:50;95152.63;;;32.65;43.84
55424;BME280;41294;42.666;23.350;2023-07-13T08:11:16;95157.91;;;32.82;44.51
55424;BME280;41294;42.666;23.350;2023-07-13T08:13:42;95155.06;;;32.04;44.66
55424;BME280;41294;42.666;23.350;2023-07-13T08:16:08;95145.88;;;31.72;45.19
55424;BME280;41294;42.666;23.350;2023-07-13T08:18:33;95142.59;;;31.92;45.82
55424;BME280;41294;42.666;23.350;2023-07-13T08:21:06;95141.16;;;31.27;45.65
55424;BME280;41294;42.666;23.350;2023-07-13T08:23:32;95147.13;;;32.74;43.20
55424;BME280;41294;42.666;23.350;2023-07-13T08:25:58;95137.81;;;33.78;41.51
55424;BME280;41294;42.666;23.350;2023-07-13T08:28:24;95139.63;;;33.64;41.48
55424;BME280;41294;42.666;23.350;2023-07-13T08:30:49;95143.31;;;33.48;42.17
55424;BME280;41294;42.666;23.350;2023-07-13T08:33:16;95142.47;;;32.96;42.44
55424;BME280;41294;42.666;23.350;2023-07-13T08:35:45;95148.41;;;33.32;41.47
55424;BME280;41294;42.666;23.350;2023-07-13T08:38:11;95134.38;;;33.98;39.88
55424;BME280;41294;42.666;23.350;2023-07-13T08:40:37;95123.94;;;34.71;39.55
55424;BME280;41294;42.666;23.350;2023-07-13T08:43:03;95127.59;;;35.42;38.78
55424;BME280;41294;42.666;23.350;2023-07-13T08:45:38;95130.94;;;35.63;37.82
55424;BME280;41294;42.666;23.350;2023-07-13T08:48:19;95125.44;;;34.95;38.98
55424;BME280;41294;42.666;23.350;2023-07-13T08:53:21;95119.13;;;33.95;39.32
55424;BME280;41294;42.666;23.350;2023-07-13T08:55:55;95126.81;;;33.66;40.54
55424;BME280;41294;42.666;23.350;2023-07-13T08:58:22;95122.47;;;33.94;40.03
55424;BME280;41294;42.666;23.350;2023-07-13T09:03:30;95137.69;;;34.94;38.40
55424;BME280;41294;42.666;23.350;2023-07-13T09:05:59;95150.72;;;35.28;38.49
55424;BME280;41294;42.666;23.350;2023-07-13T09:08:50;95148.75;;;36.35;37.15
55424;BME280;41294;42.666;23.350;2023-07-13T09:16:19;95157.94;;;35.00;38.52
55424;BME280;41294;42.666;23.350;2023-07-13T09:18:50;95154.34;;;34.54;39.11
55424;BME280;41294;42.666;23.350;2023-07-13T09:21:53;95150.22;;;34.32;39.93
55424;BME280;41294;42.666;23.350;2023-07-13T09:27:29;95149.41;;;35.51;38.40
55424;BME280;41294;42.666;23.350;2023-07-13T09:30:37;95149.69;;;35.92;37.92
55424;BME280;41294;42.666;23.350;2023-07-13T09:33:03;95145.03;;;36.92;36.54
55424;BME280;41294;42.666;23.350;2023-07-13T09:35:29;95156.53;;;37.53;35.22
55424;BME280;41294;42.666;23.350;2023-07-13T09:38:03;95153.22;;;37.30;35.28
55424;BME280;41294;42.666;23.350;2023-07-13T09:40:44;95152.56;;;37.70;35.15
55424;BME280;41294;42.666;23.350;2023-07-13T09:43:14;95141.94;;;38.04;34.22
55424;BME280;41294;42.666;23.350;2023-07-13T09:45:40;95142.50;;;38.59;33.11
55424;BME280;41294;42.666;23.350;2023-07-13T09:48:10;95136.09;;;38.98;32.18
55424;BME280;41294;42.666;23.350;2023-07-13T09:50:36;95133.19;;;39.25;31.80
55424;BME280;41294;42.666;23.350;2023-07-13T09:53:02;95122.13;;;38.94;31.39
55424;BME280;41294;42.666;23.350;2023-07-13T09:55:37;95122.44;;;38.14;32.55
55424;BME280;41294;42.666;23.350;2023-07-13T09:58:20;95114.78;;;37.43;33.81
55424;BME280;41294;42.666;23.350;2023-07-13T10:00:59;95106.38;;;36.88;34.55
55424;BME280;41294;42.666;23.350;2023-07-13T10:03:33;95110.19;;;36.83;33.73
55424;BME280;41294;42.666;23.350;2023-07-13T10:06:20;95103.91;;;36.30;35.80
55424;BME280;41294;42.666;23.350;2023-07-13T10:08:52;95107.44;;;37.34;34.01
55424;BME280;41294;42.666;23.350;2023-07-13T10:11:22;95095.06;;;36.32;35.51
55424;BME280;41294;42.666;23.350;2023-07-13T10:14:00;95087.69;;;36.73;34.88
55424;BME280;41294;42.666;23.350;2023-07-13T10:16:33;95085.84;;;36.39;35.58
55424;BME280;41294;42.666;23.350;2023-07-13T10:19:03;95095.25;;;37.37;35.13
55424;BME280;41294;42.666;23.350;2023-07-13T10:21:39;95099.34;;;38.05;33.10
55424;BME280;41294;42.666;23.350;2023-07-13T10:24:15;95092.25;;;38.16;33.41
55424;BME280;41294;42.666;23.350;2023-07-13T10:29:47;95084.91;;;36.46;34.93
55424;BME280;41294;42.666;23.350;2023-07-13T10:32:14;95073.72;;;36.94;34.51
55424;BME280;41294;42.666;23.350;2023-07-13T10:34:45;95076.28;;;37.43;33.75
55424;BME280;41294;42.666;23.350;2023-07-13T10:37:30;95075.25;;;37.91;34.06
55424;BME280;41294;42.666;23.350;2023-07-13T10:40:00;95065.53;;;38.32;30.83
55424;BME280;41294;42.666;23.350;2023-07-13T10:42:33;95072.81;;;38.41;28.80
55424;BME280;41294;42.666;23.350;2023-07-13T10:45:00;95062.13;;;38.78;27.54
55424;BME280;41294;42.666;23.350;2023-07-13T10:47:26;95063.22;;;38.71;27.42
55424;BME280;41294;42.666;23.350;2023-07-13T10:49:54;95050.13;;;38.71;27.16
55424;BME280;41294;42.666;23.350;2023-07-13T10:52:43;95052.34;;;39.05;25.70
55424;BME280;41294;42.666;23.350;2023-07-13T10:55:30;95039.03;;;39.15;26.35
55424;BME280;41294;42.666;23.350;2023-07-13T10:58:02;95039.81;;;39.33;26.83
55424;BME280;41294;42.666;23.350;2023-07-13T11:00:31;95040.72;;;39.55;25.46
55424;BME280;41294;42.666;23.350;2023-07-13T11:03:00;95038.53;;;39.52;25.27
55424;BME280;41294;42.666;23.350;2023-07-13T11:05:30;95027.69;;;39.40;25.28
55424;BME280;41294;42.666;23.350;2023-07-13T11:08:21;95027.41;;;39.50;24.85
55424;BME280;41294;42.666;23.350;2023-07-13T11:10:56;95017.09;;;39.35;25.23
55424;BME280;41294;42.666;23.350;2023-07-13T11:16:36;95010.56;;;39.26;25.77
55424;BME280;41294;42.666;23.350;2023-07-13T11:21:28;94994.63;;;39.25;24.87
55424;BME280;41294;42.666;23.350;2023-07-13T11:24:16;94998.25;;;39.12;25.46
55424;BME280;41294;42.666;23.350;2023-07-13T11:29:37;95007.03;;;39.41;25.80
55424;BME280;41294;42.666;23.350;2023-07-13T11:32:22;95002.53;;;39.32;26.07
55424;BME280;41294;42.666;23.350;2023-07-13T11:34:48;95004.00;;;39.51;25.52
55424;BME280;41294;42.666;23.350;2023-07-13T11:37:16;94998.44;;;39.66;25.45
55424;BME280;41294;42.666;23.350;2023-07-13T11:39:44;94987.53;;;39.20;25.49
55424;BME280;41294;42.666;23.350;2023-07-13T11:42:13;94980.63;;;38.88;26.42
55424;BME280;41294;42.666;23.350;2023-07-13T11:44:45;94988.78;;;39.17;26.83
55424;BME280;41294;42.666;23.350;2023-07-13T11:47:17;94989.97;;;38.96;26.85
55424;BME280;41294;42.666;23.350;2023-07-13T11:49:48;94984.09;;;39.04;26.34
55424;BME280;41294;42.666;23.350;2023-07-13T11:52:18;94984.16;;;39.21;26.73
55424;BME280;41294;42.666;23.350;2023-07-13T11:54:53;94978.94;;;39.12;26.67
55424;BME280;41294;42.666;23.350;2023-07-13T11:57:28;94975.50;;;38.80;26.87
55424;BME280;41294;42.666;23.350;2023-07-13T11:59:56;94978.66;;;39.06;26.86
55424;BME280;41294;42.666;23.350;2023-07-13T12:02:31;94972.25;;;39.01;26.78
55424;BME280;41294;42.666;23.350;2023-07-13T12:04:58;94965.09;;;39.27;26.82
55424;BME280;41294;42.666;23.350;2023-07-13T12:07:29;94963.91;;;39.15;26.39
55424;BME280;41294;42.666;23.350;2023-07-13T12:10:13;94958.69;;;38.75;26.83
55424;BME280;41294;42.666;23.350;2023-07-13T12:12:57;94955.06;;;38.55;27.24
55424;BME280;41294;42.666;23.350;2023-07-13T12:15:29;94955.78;;;38.71;26.42
55424;BME280;41294;42.666;23.350;2023-07-13T12:17:56;94951.06;;;38.73;26.38
55424;BME280;41294;42.666;23.350;2023-07-13T12:20:28;94947.78;;;38.46;27.38
55424;BME280;41294;42.666;23.350;2023-07-13T12:22:58;94939.97;;;38.56;26.43
55424;BME280;41294;42.666;23.350;2023-07-13T12:25:24;94931.88;;;38.60;26.61
55424;BME280;41294;42.666;23.350;2023-07-13T12:27:51;94935.88;;;38.57;26.86
55424;BME280;41294;42.666;23.350;2023-07-13T12:30:24;94931.97;;;38.62;27.05
55424;BME280;41294;42.666;23.350;2023-07-13T12:33:11;94926.03;;;38.67;26.54
55424;BME280;41294;42.666;23.350;2023-07-13T12:35:49;94922.19;;;38.59;27.10
55424;BME280;41294;42.666;23.350;2023-07-13T12:38:16;94909.59;;;38.54;27.55
55424;BME280;41294;42.666;23.350;2023-07-13T12:40:42;94915.66;;;38.66;28.18
55424;BME280;41294;42.666;23.350;2023-07-13T12:43:14;94916.50;;;38.70;27.73
55424;BME280;41294;42.666;23.350;2023-07-13T12:45:55;94904.13;;;38.86;27.94
55424;BME280;41294;42.666;23.350;2023-07-13T12:48:21;94896.72;;;38.74;28.29
55424;BME280;41294;42.666;23.350;2023-07-13T12:50:48;94892.75;;;38.30;28.45
55424;BME280;41294;42.666;23.350;2023-07-13T12:53:20;94895.47;;;38.15;29.13
55424;BME280;41294;42.666;23.350;2023-07-13T12:55:52;94887.75;;;38.11;28.67
55424;BME280;41294;42.666;23.350;2023-07-13T12:58:25;94886.09;;;38.20;29.32
55424;BME280;41294;42.666;23.350;2023-07-13T13:00:53;94908.19;;;37.49;30.58
55424;BME280;41294;42.666;23.350;2023-07-13T13:05:45;94895.09;;;36.65;32.15
55424;BME280;41294;42.666;23.350;2023-07-13T13:08:11;94898.75;;;36.69;31.74
55424;BME280;41294;42.666;23.350;2023-07-13T13:10:37;94892.06;;;36.59;30.90
55424;BME280;41294;42.666;23.350;2023-07-13T13:13:03;94886.34;;;36.68;30.48
55424;BME280;41294;42.666;23.350;2023-07-13T13:15:28;94885.13;;;36.71;31.38
55424;BME280;41294;42.666;23.350;2023-07-13T13:17:55;94885.03;;;36.56;31.29
55424;BME280;41294;42.666;23.350;2023-07-13T13:20:21;94882.91;;;36.54;32.03
55424;BME280;41294;42.666;23.350;2023-07-13T13:22:47;94881.19;;;36.61;31.40
55424;BME280;41294;42.666;23.350;2023-07-13T13:25:14;94878.56;;;36.63;31.96